Time;durP1;ratioP1;P1;durP2;ratioP2;P2;SDS_P1;SDS_P2;PMS_P1;PMS_P2;Temp;Humidity;BMP_temperature;BMP_pressure;BME280_temperature;BME280_humidity;BME280_pressure;Samples;Min_cycle;Max_cycle;Signal;HPM_P1;HPM_P2
2023/05/27 00:02:16;;;;;;;12.20;4.55;;;7.80;99.90;;;;;;5044543;28;20400;-78
2023/05/27 00:04:42;;;;;;;12.63;4.55;;;7.80;99.90;;;;;;5052794;28;20033;-79
2023/05/27 00:07:07;;;;;;;9.40;3.70;;;7.80;99.90;;;;;;5053818;28;20040;-79
2023/05/27 00:09:33;;;;;;;14.00;4.00;;;7.70;99.90;;;;;;5046471;28;20028;-79
2023/05/27 00:11:59;;;;;;;10.55;4.07;;;7.70;99.90;;;;;;5056213;28;20047;-79
2023/05/27 00:14:25;;;;;;;9.60;3.85;;;7.60;99.90;;;;;;5051501;28;20067;-79
2023/05/27 00:16:51;;;;;;;13.18;3.85;;;7.60;99.90;;;;;;5058402;28;20403;-79
2023/05/27 00:19:17;;;;;;;10.85;4.40;;;7.60;99.90;;;;;;5042838;28;20100;-78
2023/05/27 00:21:42;;;;;;;10.05;3.53;;;7.50;99.90;;;;;;5053549;28;20055;-78
2023/05/27 00:24:09;;;;;;;12.52;4.50;;;7.50;99.90;;;;;;5041775;28;20175;-79
2023/05/27 00:26:35;;;;;;;9.80;4.03;;;7.40;99.90;;;;;;5051343;28;20038;-79
2023/05/27 00:29:00;;;;;;;7.75;3.70;;;7.40;99.90;;;;;;5047593;28;20099;-79
2023/05/27 00:31:26;;;;;;;9.77;4.47;;;7.40;99.90;;;;;;5035202;28;20048;-78
2023/05/27 00:33:52;;;;;;;12.73;4.20;;;7.40;99.90;;;;;;5052082;28;20033;-79
2023/05/27 00:36:18;;;;;;;10.00;3.85;;;7.30;99.90;;;;;;5048932;28;20624;-78
2023/05/27 00:38:43;;;;;;;10.75;4.43;;;7.30;99.90;;;;;;5048481;28;20040;-79
2023/05/27 00:41:12;;;;;;;10.60;3.85;;;7.30;99.90;;;;;;5027455;28;20072;-78
2023/05/27 00:43:37;;;;;;;13.05;4.15;;;7.30;99.90;;;;;;5053206;28;20037;-79
2023/05/27 00:46:03;;;;;;;10.25;4.05;;;7.30;99.90;;;;;;5048265;28;20036;-77
2023/05/27 00:48:29;;;;;;;9.98;4.35;;;7.20;99.90;;;;;;5034931;28;20075;-78
2023/05/27 00:50:55;;;;;;;8.95;4.13;;;7.20;99.90;;;;;;5048078;28;20041;-78
2023/05/27 00:53:23;;;;;;;10.80;4.53;;;7.20;99.90;;;;;;5023430;28;20481;-78
2023/05/27 00:55:53;;;;;;;8.38;4.03;;;7.00;99.90;;;;;;5048127;28;20037;-79
2023/05/27 00:58:21;;;;;;;6.63;4.07;;;7.10;99.90;;;;;;5041141;28;20497;-78
2023/05/27 01:00:47;;;;;;;12.15;4.55;;;7.10;99.90;;;;;;5042197;28;20428;-78
2023/05/27 01:03:15;;;;;;;11.55;4.03;;;7.00;99.90;;;;;;5050969;28;20041;-78
2023/05/27 01:05:40;;;;;;;12.27;4.45;;;6.90;99.90;;;;;;5063475;28;20044;-78
2023/05/27 01:08:25;;;;;;;13.25;4.43;;;6.90;99.90;;;;;;5040999;28;20151;-79
2023/05/27 01:10:53;;;;;;;13.30;4.50;;;6.90;99.90;;;;;;5042237;28;20024;-77
2023/05/27 01:13:45;;;;;;;13.50;4.45;;;6.90;99.90;;;;;;5026708;28;20106;-78
2023/05/27 01:16:14;;;;;;;9.80;3.90;;;6.80;99.90;;;;;;5052353;28;20453;-78
2023/05/27 01:18:44;;;;;;;9.85;4.18;;;6.80;99.90;;;;;;5065875;28;20119;-78
2023/05/27 01:21:12;;;;;;;14.02;4.68;;;6.80;99.90;;;;;;5033989;28;20040;-79
2023/05/27 01:23:40;;;;;;;11.90;4.03;;;6.80;99.90;;;;;;5043922;28;20047;-78
2023/05/27 01:26:06;;;;;;;7.43;4.18;;;6.80;99.90;;;;;;5050802;28;20071;-78
2023/05/27 01:28:32;;;;;;;11.93;4.50;;;6.80;99.90;;;;;;5065921;28;20064;-78
2023/05/27 01:31:15;;;;;;;10.80;4.22;;;6.70;99.90;;;;;;5040074;28;20084;-78
2023/05/27 01:33:43;;;;;;;11.38;4.35;;;6.70;99.90;;;;;;5024847;28;20045;-78
2023/05/27 01:36:16;;;;;;;9.18;3.95;;;6.70;99.90;;;;;;5041946;28;20593;-78
2023/05/27 01:38:45;;;;;;;10.27;4.68;;;6.70;99.90;;;;;;5047431;28;20405;-78
2023/05/27 01:41:13;;;;;;;12.32;5.25;;;6.70;99.90;;;;;;5040201;28;20041;-78
2023/05/27 01:43:40;;;;;;;11.80;3.95;;;6.80;99.90;;;;;;5047714;28;20044;-79
2023/05/27 01:46:06;;;;;;;11.90;4.50;;;6.70;99.90;;;;;;5039183;28;20030;-78
2023/05/27 01:48:32;;;;;;;15.20;5.20;;;6.30;99.90;;;;;;5043748;28;20041;-78
2023/05/27 01:50:57;;;;;;;13.57;4.82;;;6.70;99.90;;;;;;5045902;28;20044;-79
2023/05/27 01:53:23;;;;;;;11.45;5.20;;;6.60;99.90;;;;;;5029381;28;20374;-78
2023/05/27 01:55:49;;;;;;;11.27;4.60;;;6.60;99.90;;;;;;5048001;28;20040;-78
2023/05/27 01:58:15;;;;;;;10.27;4.75;;;6.60;99.90;;;;;;5051393;28;20040;-78
2023/05/27 02:00:40;;;;;;;14.10;4.97;;;6.60;99.90;;;;;;5049459;28;21018;-79
2023/05/27 02:03:06;;;;;;;11.65;4.80;;;6.50;99.90;;;;;;5033015;28;20037;-78
2023/05/27 02:05:32;;;;;;;13.30;4.90;;;6.50;99.90;;;;;;5029809;28;20125;-78
2023/05/27 02:07:58;;;;;;;10.38;4.72;;;6.50;99.90;;;;;;5051518;28;20442;-78
2023/05/27 02:10:24;;;;;;;14.15;4.70;;;6.50;99.90;;;;;;5050367;28;20039;-78
2023/05/27 02:12:49;;;;;;;13.10;4.93;;;6.50;99.90;;;;;;5049994;28;20037;-77
2023/05/27 02:15:15;;;;;;;12.30;5.32;;;6.50;99.90;;;;;;5052264;28;20134;-78
2023/05/27 02:17:41;;;;;;;10.38;4.85;;;6.50;99.90;;;;;;5051478;28;20041;-78
2023/05/27 02:20:07;;;;;;;8.85;4.35;;;6.40;99.90;;;;;;5052452;28;20131;-78
2023/05/27 02:22:32;;;;;;;9.02;4.90;;;6.40;99.90;;;;;;5034471;28;20436;-78
2023/05/27 02:24:58;;;;;;;11.20;4.75;;;6.40;99.90;;;;;;5035921;28;20037;-77
2023/05/27 02:27:23;;;;;;;11.63;4.53;;;6.40;99.90;;;;;;5051544;28;20048;-78
2023/05/27 02:29:49;;;;;;;11.38;4.40;;;6.40;99.90;;;;;;5063686;28;20029;-78
2023/05/27 02:32:15;;;;;;;15.43;5.53;;;6.30;99.90;;;;;;5039046;28;20033;-78
2023/05/27 02:34:44;;;;;;;11.95;4.80;;;6.30;99.90;;;;;;5050838;28;20378;-78
2023/05/27 02:37:10;;;;;;;14.18;5.50;;;6.30;99.90;;;;;;5051617;28;20052;-78
2023/05/27 02:39:36;;;;;;;13.00;4.40;;;6.30;99.90;;;;;;5050108;28;20033;-79
2023/05/27 02:42:02;;;;;;;11.77;5.32;;;6.30;99.90;;;;;;5044348;28;20040;-78
2023/05/27 02:44:31;;;;;;;10.95;4.88;;;6.30;99.90;;;;;;5018828;28;20044;-79
2023/05/27 02:46:56;;;;;;;11.95;4.95;;;6.40;99.90;;;;;;5047072;28;20525;-78
2023/05/27 02:49:22;;;;;;;13.88;5.25;;;6.30;99.90;;;;;;5040817;28;20037;-78
2023/05/27 02:51:47;;;;;;;14.20;4.93;;;6.30;99.90;;;;;;5047025;28;20033;-78
2023/05/27 02:54:13;;;;;;;11.23;5.22;;;6.30;99.90;;;;;;5050027;28;20483;-78
2023/05/27 02:56:38;;;;;;;16.60;5.85;;;6.30;99.90;;;;;;5048443;28;20523;-77
2023/05/27 02:59:04;;;;;;;12.38;5.03;;;6.30;99.90;;;;;;5047749;28;20037;-78
2023/05/27 03:01:30;;;;;;;11.93;5.40;;;6.30;99.90;;;;;;5032436;28;20408;-78
2023/05/27 03:03:56;;;;;;;14.00;4.82;;;6.40;99.90;;;;;;5049186;28;20051;-78
2023/05/27 03:06:21;;;;;;;11.45;5.05;;;6.20;99.90;;;;;;5050828;28;20502;-78
2023/05/27 03:08:47;;;;;;;11.07;4.47;;;6.40;99.90;;;;;;5048077;28;20043;-77
2023/05/27 03:11:12;;;;;;;19.20;5.47;;;6.50;99.90;;;;;;5040845;28;20033;-78
2023/05/27 03:13:38;;;;;;;13.40;5.68;;;6.60;99.90;;;;;;5048108;28;20029;-78
2023/05/27 03:16:04;;;;;;;10.30;5.03;;;6.60;99.90;;;;;;5048368;28;20405;-78
2023/05/27 03:18:29;;;;;;;12.15;5.10;;;6.70;99.90;;;;;;5050464;28;20119;-78
2023/05/27 03:20:55;;;;;;;10.55;4.72;;;6.60;99.90;;;;;;5028175;28;20510;-77
2023/05/27 03:23:21;;;;;;;13.80;4.78;;;6.80;99.90;;;;;;5051030;28;20041;-78
2023/05/27 03:25:46;;;;;;;11.95;5.25;;;6.90;99.90;;;;;;5049348;28;20029;-79
2023/05/27 03:28:12;;;;;;;14.00;5.30;;;6.90;99.90;;;;;;5043866;28;20037;-78
2023/05/27 03:30:38;;;;;;;15.20;5.15;;;7.00;99.90;;;;;;5051080;28;20401;-78
2023/05/27 03:33:03;;;;;;;14.60;5.68;;;6.90;99.90;;;;;;5042264;28;20056;-78
2023/05/27 03:35:29;;;;;;;12.38;5.07;;;7.30;99.90;;;;;;5033347;28;20187;-78
2023/05/27 03:37:55;;;;;;;10.05;5.43;;;7.30;99.90;;;;;;5047228;28;20036;-78
2023/05/27 03:40:20;;;;;;;16.13;6.05;;;7.50;99.90;;;;;;5049146;28;20405;-78
2023/05/27 03:42:46;;;;;;;15.65;5.28;;;7.40;99.90;;;;;;5050202;28;20037;-78
2023/05/27 03:45:11;;;;;;;12.60;5.75;;;7.50;99.90;;;;;;5026116;28;20047;-78
2023/05/27 03:47:37;;;;;;;16.40;6.28;;;7.50;99.90;;;;;;5043947;28;20037;-78
2023/05/27 03:50:03;;;;;;;17.55;5.55;;;7.50;99.90;;;;;;5038816;28;20118;-78
2023/05/27 03:52:28;;;;;;;12.00;5.82;;;7.60;99.90;;;;;;5065305;28;20032;-78
2023/05/27 03:54:54;;;;;;;10.25;5.63;;;7.70;99.90;;;;;;5049010;28;20484;-78
2023/05/27 03:57:19;;;;;;;13.68;6.18;;;7.80;99.90;;;;;;5047193;28;20041;-78
2023/05/27 03:59:45;;;;;;;14.93;5.88;;;7.80;99.90;;;;;;5052846;28;20059;-78
2023/05/27 04:02:11;;;;;;;14.73;5.10;;;7.80;99.90;;;;;;5025016;28;20086;-78
2023/05/27 04:04:37;;;;;;;12.88;4.80;;;7.60;99.90;;;;;;5053848;28;20081;-78
2023/05/27 04:07:02;;;;;;;13.75;4.90;;;7.70;99.90;;;;;;5028809;28;20191;-78
2023/05/27 04:09:28;;;;;;;14.02;5.50;;;7.90;99.90;;;;;;5060165;28;20049;-78
2023/05/27 04:11:54;;;;;;;16.10;5.80;;;7.80;99.90;;;;;;5032073;28;20036;-78
2023/05/27 04:14:19;;;;;;;10.73;4.60;;;7.90;99.90;;;;;;5052737;28;20032;-78
2023/05/27 04:16:45;;;;;;;16.33;5.47;;;7.90;99.90;;;;;;5052020;28;20041;-77
2023/05/27 04:19:11;;;;;;;10.30;4.55;;;7.90;99.90;;;;;;5045475;28;20036;-78
2023/05/27 04:21:36;;;;;;;10.15;4.15;;;7.90;99.90;;;;;;5049120;28;20064;-78
2023/05/27 04:24:03;;;;;;;12.93;4.93;;;7.70;99.90;;;;;;5033579;28;20051;-77
2023/05/27 04:26:28;;;;;;;11.65;4.90;;;7.90;99.90;;;;;;5048603;28;20062;-78
2023/05/27 04:28:54;;;;;;;9.45;5.22;;;8.20;99.90;;;;;;5052355;28;20537;-78
2023/05/27 04:31:20;;;;;;;13.68;5.00;;;7.90;99.90;;;;;;5049225;28;20048;-78
2023/05/27 04:33:45;;;;;;;12.30;5.20;;;7.90;99.90;;;;;;5052786;28;20057;-77
2023/05/27 04:36:11;;;;;;;13.57;4.88;;;7.70;99.90;;;;;;5064449;28;20045;-77
2023/05/27 04:38:37;;;;;;;9.70;5.00;;;8.00;99.90;;;;;;5056303;28;20069;-78
2023/05/27 04:41:03;;;;;;;17.08;5.00;;;7.90;99.90;;;;;;5040904;28;20041;-78
2023/05/27 04:43:30;;;;;;;12.88;4.82;;;7.90;99.90;;;;;;5028260;28;20041;-78
2023/05/27 04:45:59;;;;;;;16.40;5.38;;;8.00;99.90;;;;;;5037210;28;20039;-77
2023/05/27 04:48:25;;;;;;;14.80;5.55;;;8.00;99.90;;;;;;5040877;28;20052;-78
2023/05/27 04:50:53;;;;;;;19.27;5.90;;;8.00;99.90;;;;;;5027560;28;20025;-78
2023/05/27 04:53:19;;;;;;;14.50;5.53;;;7.90;99.90;;;;;;5042930;28;20493;-78
2023/05/27 04:55:45;;;;;;;11.77;5.15;;;8.10;99.90;;;;;;5024172;28;20040;-77
2023/05/27 04:58:11;;;;;;;17.23;5.53;;;8.10;99.90;;;;;;5047580;28;20047;-78
2023/05/27 05:00:38;;;;;;;15.55;5.90;;;8.30;99.90;;;;;;5038055;28;20123;-78
2023/05/27 05:03:08;;;;;;;15.88;5.70;;;8.20;99.90;;;;;;5028642;28;20047;-77
2023/05/27 05:05:34;;;;;;;16.25;6.22;;;8.30;99.90;;;;;;5051245;28;20068;-78
2023/05/27 05:08:00;;;;;;;15.50;5.80;;;8.30;99.90;;;;;;5045857;28;20106;-78
2023/05/27 05:10:26;;;;;;;13.18;5.72;;;8.40;99.90;;;;;;5020276;28;20064;-78
2023/05/27 05:12:52;;;;;;;16.63;5.50;;;8.50;99.90;;;;;;5051372;28;20032;-78
2023/05/27 05:15:17;;;;;;;17.67;5.38;;;8.50;99.90;;;;;;5063971;28;20056;-78
2023/05/27 05:17:43;;;;;;;18.90;6.15;;;8.60;99.90;;;;;;5054515;28;20060;-78
2023/05/27 05:20:10;;;;;;;15.40;5.28;;;8.70;99.90;;;;;;5053769;28;20078;-78
2023/05/27 05:22:36;;;;;;;14.50;6.32;;;8.80;99.90;;;;;;5049770;28;20097;-78
2023/05/27 05:25:01;;;;;;;17.75;5.60;;;8.90;99.90;;;;;;5046657;28;20033;-78
2023/05/27 05:27:28;;;;;;;16.92;5.53;;;9.00;99.90;;;;;;5054112;28;20086;-78
2023/05/27 05:29:54;;;;;;;19.17;6.82;;;9.00;99.90;;;;;;5032125;28;20044;-78
2023/05/27 05:32:19;;;;;;;16.58;5.43;;;9.20;99.90;;;;;;5049739;28;20032;-78
2023/05/27 05:34:45;;;;;;;14.90;6.53;;;9.50;99.90;;;;;;5040981;28;20508;-77
2023/05/27 05:37:11;;;;;;;21.88;5.95;;;9.30;99.90;;;;;;5034749;28;20044;-78
2023/05/27 05:39:37;;;;;;;16.35;5.60;;;9.60;99.90;;;;;;5033351;28;20498;-78
2023/05/27 05:42:03;;;;;;;15.23;5.18;;;9.60;99.90;;;;;;5047953;28;20036;-78
2023/05/27 05:44:29;;;;;;;13.52;5.35;;;9.70;99.90;;;;;;5025304;28;20508;-78
2023/05/27 05:46:55;;;;;;;15.05;5.82;;;9.90;99.90;;;;;;5050428;28;20041;-78
2023/05/27 05:49:20;;;;;;;15.50;5.32;;;9.90;99.90;;;;;;5041778;28;20040;-79
2023/05/27 05:51:46;;;;;;;17.02;5.45;;;10.20;99.90;;;;;;5035271;28;20044;-79
2023/05/27 05:54:12;;;;;;;11.02;5.18;;;10.20;99.90;;;;;;5047242;28;20151;-78
2023/05/27 05:56:37;;;;;;;13.88;5.38;;;10.30;99.90;;;;;;5051173;28;20087;-78
2023/05/27 05:59:03;;;;;;;14.02;4.95;;;10.70;99.90;;;;;;5035615;28;20089;-78
2023/05/27 06:01:29;;;;;;;18.05;5.55;;;10.80;99.90;;;;;;5048254;28;20043;-81
2023/05/27 06:03:56;;;;;;;16.83;4.97;;;10.50;99.90;;;;;;5040769;28;20102;-79
2023/05/27 06:06:21;;;;;;;16.85;5.18;;;10.70;99.90;;;;;;5048866;28;20087;-79
2023/05/27 06:08:47;;;;;;;17.08;5.20;;;11.00;99.90;;;;;;5029651;28;20040;-79
2023/05/27 06:11:13;;;;;;;17.95;5.25;;;11.00;99.90;;;;;;5040993;28;20033;-75
2023/05/27 06:13:39;;;;;;;14.15;5.32;;;11.00;99.90;;;;;;5022448;28;20459;-78
2023/05/27 06:16:05;;;;;;;12.63;5.40;;;11.20;99.90;;;;;;5029939;28;20047;-81
2023/05/27 06:18:33;;;;;;;18.17;5.50;;;11.30;99.90;;;;;;5026751;28;20412;-78
2023/05/27 06:20:59;;;;;;;18.38;5.13;;;11.40;99.90;;;;;;5048502;28;20105;-78
2023/05/27 06:23:24;;;;;;;14.82;5.28;;;11.40;99.90;;;;;;5044223;28;20432;-78
2023/05/27 06:25:50;;;;;;;16.98;4.97;;;11.30;99.90;;;;;;5027933;28;20043;-79
2023/05/27 06:28:16;;;;;;;11.35;4.50;;;11.30;99.90;;;;;;5027449;28;20064;-84
2023/05/27 06:30:42;;;;;;;17.08;5.47;;;11.40;99.90;;;;;;5048462;28;20404;-81
2023/05/27 06:33:08;;;;;;;14.88;6.20;;;11.10;99.90;;;;;;5046962;28;20119;-81
2023/05/27 06:35:34;;;;;;;13.18;5.22;;;11.30;99.90;;;;;;5045476;28;20139;-81
2023/05/27 06:38:00;;;;;;;14.32;4.85;;;11.30;99.90;;;;;;5044134;28;20044;-81
2023/05/27 06:40:25;;;;;;;13.40;5.22;;;11.90;99.90;;;;;;5025628;28;20067;-81
2023/05/27 06:42:51;;;;;;;12.50;4.75;;;11.70;99.90;;;;;;5023447;28;20063;-81
2023/05/27 06:45:16;;;;;;;17.02;5.32;;;12.20;99.90;;;;;;5036360;28;20072;-81
2023/05/27 06:47:42;;;;;;;18.98;4.60;;;12.30;99.90;;;;;;5039748;28;20152;-86
2023/05/27 06:50:08;;;;;;;16.88;4.63;;;12.30;99.90;;;;;;5030116;28;20102;-86
2023/05/27 06:52:34;;;;;;;13.73;5.00;;;12.20;99.90;;;;;;5026344;28;20103;-86
2023/05/27 06:55:02;;;;;;;13.68;5.43;;;12.40;99.90;;;;;;5045341;28;20044;-84
2023/05/27 06:57:33;;;;;;;15.60;5.45;;;12.50;99.90;;;;;;5029668;28;20048;-86
2023/05/27 07:00:03;;;;;;;14.65;4.88;;;12.70;99.90;;;;;;5031685;28;20048;-85
2023/05/27 07:02:29;;;;;;;14.00;5.20;;;13.60;99.90;;;;;;5046444;28;20411;-83
2023/05/27 07:04:55;;;;;;;10.70;4.43;;;13.00;99.90;;;;;;5031434;28;20668;-84
2023/05/27 07:07:23;;;;;;;15.88;4.88;;;13.40;99.90;;;;;;5046098;28;20048;-85
2023/05/27 07:09:51;;;;;;;13.32;5.45;;;13.00;99.90;;;;;;5030064;28;20807;-85
2023/05/27 07:12:49;;;;;;;14.32;5.13;;;12.10;99.90;;;;;;5049043;28;20033;-86
2023/05/27 07:15:55;;;;;;;13.20;4.68;;;12.40;99.90;;;;;;5034710;28;20045;-86
2023/05/27 07:18:52;;;;;;;;;;;;;;;;;;;;;
2023/05/27 07:21:33;;;;;;;18.23;5.55;;;11.80;99.90;;;;;;4997404;28;20049;-87
2023/05/27 07:24:03;;;;;;;15.07;4.50;;;12.60;99.90;;;;;;5060855;28;20405;-85
2023/05/27 07:26:29;;;;;;;14.93;5.28;;;13.00;99.90;;;;;;5042921;28;20153;-85
2023/05/27 07:28:58;;;;;;;14.43;6.05;;;13.60;99.90;;;;;;5046046;28;20051;-86
2023/05/27 07:31:24;;;;;;;14.18;4.85;;;13.40;99.90;;;;;;5029781;28;20043;-86
2023/05/27 07:33:49;;;;;;;13.80;5.28;;;14.20;99.90;;;;;;5051324;28;20074;-85
2023/05/27 07:36:15;;;;;;;14.60;5.68;;;14.00;99.90;;;;;;5023407;28;20032;-86
2023/05/27 07:38:41;;;;;;;13.45;5.28;;;14.10;99.90;;;;;;5054272;28;20423;-86
2023/05/27 07:41:06;;;;;;;14.63;4.82;;;14.30;99.90;;;;;;5045182;28;20041;-86
2023/05/27 07:49:50;;;;;;;12.27;4.80;;;14.80;99.90;;;;;;5066868;28;20127;-33
2023/05/27 07:52:17;;;;;;;10.88;4.90;;;14.90;99.90;;;;;;5066898;28;20098;-33
2023/05/27 07:54:43;;;;;;;15.32;5.30;;;15.10;99.90;;;;;;5059719;28;20047;-33
2023/05/27 07:57:08;;;;;;;13.77;5.05;;;15.20;99.90;;;;;;5067152;28;20040;-33
2023/05/27 07:59:34;;;;;;;16.27;5.72;;;15.30;99.90;;;;;;5057464;28;20067;-32
2023/05/27 08:02:01;;;;;;;13.07;4.60;;;15.50;99.90;;;;;;5059537;28;20072;-33
2023/05/27 08:04:27;;;;;;;14.57;4.72;;;15.60;99.90;;;;;;5058472;28;20483;-33
2023/05/27 08:06:56;;;;;;;11.88;4.75;;;15.80;99.90;;;;;;5068571;28;20132;-33
2023/05/27 08:09:21;;;;;;;19.38;5.38;;;16.10;99.90;;;;;;5054767;28;20426;-33
2023/05/27 08:11:47;;;;;;;12.30;4.38;;;16.30;99.90;;;;;;5065661;28;20091;-33
2023/05/27 08:14:13;;;;;;;13.52;5.05;;;16.40;99.90;;;;;;5046832;28;20378;-33
2023/05/27 08:16:45;;;;;;;16.33;4.80;;;16.60;99.90;;;;;;5071434;28;20032;-34
2023/05/27 08:19:16;;;;;;;14.75;5.22;;;16.90;99.90;;;;;;5064926;28;20064;-33
2023/05/27 08:21:42;;;;;;;15.02;5.28;;;17.10;99.90;;;;;;5062086;28;20447;-32
2023/05/27 08:24:08;;;;;;;13.55;5.65;;;17.20;99.90;;;;;;5056617;28;20072;-33
2023/05/27 08:26:34;;;;;;;15.93;4.90;;;17.30;99.90;;;;;;5056119;28;20140;-32
2023/05/27 08:29:00;;;;;;;13.75;5.78;;;17.20;99.90;;;;;;5072288;28;20473;-33
2023/05/27 08:31:26;;;;;;;16.90;5.00;;;17.10;99.90;;;;;;5068935;28;20078;-33
2023/05/27 08:33:51;;;;;;;14.77;5.07;;;17.30;99.90;;;;;;5041929;28;20128;-33
2023/05/27 08:36:19;;;;;;;10.13;4.90;;;17.50;99.90;;;;;;5058150;28;20371;-32
2023/05/27 08:38:44;;;;;;;12.70;5.15;;;17.50;99.90;;;;;;5066615;28;20053;-33
2023/05/27 08:41:11;;;;;;;14.93;5.95;;;17.40;99.90;;;;;;5058288;28;20403;-34
2023/05/27 08:43:37;;;;;;;10.65;4.68;;;17.40;99.90;;;;;;5061779;28;20032;-33
2023/05/27 08:46:04;;;;;;;16.50;5.65;;;17.60;99.90;;;;;;5058440;28;20513;-34
2023/05/27 08:48:30;;;;;;;13.40;4.88;;;17.80;99.90;;;;;;5060125;28;20820;-36
2023/05/27 08:50:56;;;;;;;11.95;5.10;;;18.00;99.90;;;;;;5068580;28;20055;-34
2023/05/27 08:53:22;;;;;;;14.68;4.93;;;18.10;99.90;;;;;;5062538;28;20501;-33
2023/05/27 08:55:51;;;;;;;11.88;4.80;;;18.40;99.90;;;;;;5056811;28;20041;-33
2023/05/27 08:58:17;;;;;;;16.00;5.47;;;18.50;99.90;;;;;;5058443;28;20044;-34
2023/05/27 09:00:43;;;;;;;19.10;6.03;;;18.80;99.90;;;;;;5061340;28;20076;-36
2023/05/27 09:03:09;;;;;;;13.40;6.10;;;18.80;99.90;;;;;;5062303;28;20093;-34
2023/05/27 09:05:36;;;;;;;11.90;4.88;;;19.10;99.90;;;;;;5067327;28;20033;-34
2023/05/27 09:08:01;;;;;;;15.98;6.10;;;19.30;99.90;;;;;;5060595;28;20048;-35
2023/05/27 09:10:37;;;;;;;13.07;5.22;;;19.50;99.90;;;;;;5064166;28;20233;-36
2023/05/27 09:13:03;;;;;;;21.42;6.05;;;19.60;99.90;;;;;;5071688;28;20041;-35
2023/05/27 09:15:31;;;;;;;17.50;5.43;;;19.60;99.90;;;;;;5067110;28;20119;-34
2023/05/27 09:17:57;;;;;;;12.88;5.70;;;19.70;99.90;;;;;;5043894;28;20417;-35
2023/05/27 09:20:27;;;;;;;13.25;5.43;;;19.50;99.90;;;;;;5063042;28;20090;-34
2023/05/27 09:23:12;;;;;;;14.02;5.75;;;19.70;99.90;;;;;;5070726;28;20033;-37
2023/05/27 09:25:37;;;;;;;13.80;5.47;;;19.50;95.60;;;;;;5062509;28;20126;-36
2023/05/27 09:28:05;;;;;;;16.67;5.43;;;19.70;99.90;;;;;;5061336;28;20132;-34
2023/05/27 09:30:31;;;;;;;14.75;5.15;;;20.10;99.90;;;;;;5064879;28;20064;-40
2023/05/27 09:33:02;;;;;;;13.68;5.65;;;20.20;99.90;;;;;;5060386;28;20079;-35
2023/05/27 09:35:28;;;;;;;15.25;6.35;;;20.50;97.50;;;;;;5061029;28;20082;-37
2023/05/27 09:37:53;;;;;;;13.00;5.43;;;20.50;99.90;;;;;;5058473;28;20040;-34
2023/05/27 09:40:22;;;;;;;13.15;5.22;;;20.90;99.90;;;;;;5064036;28;20037;-34
2023/05/27 09:42:49;;;;;;;15.55;5.35;;;21.30;98.60;;;;;;5052125;28;20033;-36
2023/05/27 09:45:20;;;;;;;15.40;5.28;;;21.40;96.90;;;;;;5061266;28;20040;-34
2023/05/27 09:47:51;;;;;;;11.52;5.88;;;21.50;92.30;;;;;;5063209;28;20107;-37
2023/05/27 09:50:18;;;;;;;14.23;5.20;;;21.60;89.50;;;;;;5056537;28;20033;-36
2023/05/27 09:52:45;;;;;;;11.07;5.43;;;21.60;91.80;;;;;;5059343;28;20033;-34
2023/05/27 09:55:12;;;;;;;15.13;5.68;;;21.80;84.80;;;;;;5060090;28;20049;-35
2023/05/27 09:57:39;;;;;;;14.23;5.60;;;21.70;80.10;;;;;;5070423;28;20097;-36
2023/05/27 10:00:15;;;;;;;12.88;5.60;;;21.90;82.90;;;;;;5052675;28;20052;-34
2023/05/27 10:02:51;;;;;;;13.10;5.30;;;21.90;74.40;;;;;;5063535;28;20093;-34
2023/05/27 10:05:20;;;;;;;12.68;5.43;;;22.20;71.80;;;;;;5056676;28;20529;-34
2023/05/27 10:07:47;;;;;;;13.23;5.55;;;22.40;75.00;;;;;;5055812;28;20094;-34
2023/05/27 10:10:18;;;;;;;9.68;5.47;;;22.50;70.40;;;;;;5058481;28;20116;-35
2023/05/27 10:12:46;;;;;;;11.52;4.93;;;22.60;66.30;;;;;;5055576;28;20043;-35
2023/05/27 10:15:45;;;;;;;15.25;5.38;;;22.90;66.50;;;;;;5060886;28;20170;-35
2023/05/27 10:18:22;;;;;;;13.65;5.32;;;23.10;62.30;;;;;;5052811;28;20056;-35
2023/05/27 10:20:50;;;;;;;14.25;6.15;;;23.10;63.30;;;;;;5062468;28;20424;-34
2023/05/27 10:23:25;;;;;;;12.35;5.68;;;23.50;63.60;;;;;;5056302;28;20048;-34
2023/05/27 10:25:56;;;;;;;10.18;4.95;;;23.80;61.70;;;;;;5064381;28;20387;-37
2023/05/27 10:28:28;;;;;;;14.05;5.93;;;23.80;60.00;;;;;;5053557;28;20102;-35
2023/05/27 10:31:23;;;;;;;12.82;5.53;;;23.80;59.70;;;;;;5066987;28;20413;-34
2023/05/27 10:33:53;;;;;;;11.32;5.57;;;23.80;57.90;;;;;;5057686;28;20132;-38
2023/05/27 10:36:25;;;;;;;13.90;5.82;;;23.90;59.60;;;;;;5062040;28;20093;-34
2023/05/27 10:38:58;;;;;;;11.77;5.45;;;23.80;57.00;;;;;;5063715;28;20048;-35
2023/05/27 10:41:24;;;;;;;15.05;5.45;;;23.90;57.40;;;;;;5062894;28;20044;-36
2023/05/27 10:43:59;;;;;;;13.55;5.65;;;24.10;58.80;;;;;;5060228;28;20490;-37
2023/05/27 10:46:26;;;;;;;11.88;5.38;;;24.30;56.50;;;;;;5061455;28;20119;-35
2023/05/27 10:48:52;;;;;;;12.43;5.43;;;24.20;55.70;;;;;;5065514;28;20090;-37
2023/05/27 10:51:18;;;;;;;12.98;5.18;;;24.00;55.80;;;;;;5055125;28;20482;-36
2023/05/27 10:53:44;;;;;;;11.27;5.40;;;24.20;55.70;;;;;;5052033;28;20044;-36
2023/05/27 10:56:10;;;;;;;14.30;5.63;;;24.20;55.70;;;;;;5059604;28;20040;-35
2023/05/27 10:58:38;;;;;;;12.25;5.05;;;24.50;55.80;;;;;;5054589;28;20279;-39
2023/05/27 11:01:10;;;;;;;10.55;5.43;;;24.60;54.90;;;;;;5066306;28;20219;-34
2023/05/27 11:03:44;;;;;;;10.00;4.80;;;25.00;53.80;;;;;;5057513;28;20595;-37
2023/05/27 11:06:11;;;;;;;12.02;5.28;;;25.20;53.90;;;;;;5051339;28;20040;-35
2023/05/27 11:08:37;;;;;;;14.07;5.35;;;25.20;53.50;;;;;;5052341;28;20075;-36
2023/05/27 11:11:03;;;;;;;13.98;5.97;;;25.50;53.70;;;;;;5060763;28;20040;-36
2023/05/27 11:13:42;;;;;;;12.05;5.30;;;25.20;52.20;;;;;;5060493;28;20037;-37
2023/05/27 11:16:08;;;;;;;11.98;5.93;;;24.90;51.60;;;;;;5059412;28;20052;-35
2023/05/27 11:18:35;;;;;;;11.23;5.43;;;25.20;51.30;;;;;;5054719;28;20123;-39
2023/05/27 11:21:03;;;;;;;11.18;5.65;;;25.30;51.90;;;;;;5054646;28;20041;-35
2023/05/27 11:23:46;;;;;;;10.55;5.10;;;25.60;50.90;;;;;;5061584;28;20044;-35
2023/05/27 11:26:23;;;;;;;10.93;5.50;;;25.70;50.10;;;;;;5059271;28;20041;-35
2023/05/27 11:28:56;;;;;;;11.70;4.78;;;25.60;49.60;;;;;;5065631;28;20040;-40
2023/05/27 11:31:31;;;;;;;9.75;5.13;;;25.90;50.50;;;;;;5063682;28;20044;-35
2023/05/27 11:33:57;;;;;;;10.40;4.97;;;26.20;51.30;;;;;;5059715;28;20465;-38
2023/05/27 11:36:27;;;;;;;11.63;5.28;;;26.60;51.10;;;;;;5058652;28;20473;-37
2023/05/27 11:39:00;;;;;;;9.07;4.72;;;26.90;50.10;;;;;;5064317;28;20048;-39
2023/05/27 11:41:28;;;;;;;10.75;5.32;;;26.90;49.40;;;;;;5057909;28;20541;-37
2023/05/27 11:43:57;;;;;;;12.38;5.20;;;26.90;48.50;;;;;;5055681;28;20037;-36
2023/05/27 11:46:24;;;;;;;10.13;5.15;;;27.00;47.20;;;;;;5054104;28;20070;-35
2023/05/27 11:48:51;;;;;;;10.70;4.68;;;27.10;47.60;;;;;;5062990;28;20033;-36
2023/05/27 11:51:16;;;;;;;10.48;5.80;;;27.10;47.60;;;;;;5056664;28;20045;-36
2023/05/27 11:53:46;;;;;;;13.45;5.55;;;27.00;48.20;;;;;;5063867;28;20040;-37
2023/05/27 11:56:13;;;;;;;10.38;5.05;;;26.90;47.40;;;;;;5055347;28;20041;-39
2023/05/27 11:58:39;;;;;;;9.48;4.70;;;27.00;48.20;;;;;;5064676;28;20105;-37
2023/05/27 12:01:05;;;;;;;9.68;4.95;;;27.30;48.20;;;;;;5060937;28;20044;-36
2023/05/27 12:03:33;;;;;;;8.95;5.07;;;27.20;47.10;;;;;;5060160;28;20068;-38
2023/05/27 12:05:59;;;;;;;9.65;5.20;;;27.60;45.60;;;;;;5060714;28;20048;-36
2023/05/27 12:08:25;;;;;;;9.85;5.00;;;27.70;44.60;;;;;;5054939;28;20036;-38
2023/05/27 12:10:53;;;;;;;11.32;4.45;;;27.70;45.30;;;;;;5057315;28;20036;-39
2023/05/27 12:13:23;;;;;;;9.43;4.72;;;27.90;46.20;;;;;;5060271;28;20029;-38
2023/05/27 12:15:49;;;;;;;10.25;5.15;;;28.10;45.30;;;;;;5067940;28;20497;-38
2023/05/27 12:18:16;;;;;;;9.57;5.10;;;28.20;44.70;;;;;;5057686;28;20068;-37
2023/05/27 12:20:43;;;;;;;11.52;4.80;;;28.30;43.70;;;;;;5061945;28;20033;-37
2023/05/27 12:23:09;;;;;;;9.10;4.68;;;27.90;43.30;;;;;;5058420;28;20044;-38
2023/05/27 12:25:35;;;;;;;11.20;4.90;;;27.80;43.70;;;;;;5061815;28;20489;-37
2023/05/27 12:28:01;;;;;;;10.68;5.03;;;28.00;43.70;;;;;;5054755;28;20055;-38
2023/05/27 12:30:26;;;;;;;9.55;5.15;;;28.00;44.00;;;;;;5067158;28;20371;-37
2023/05/27 12:32:52;;;;;;;10.52;4.70;;;28.40;43.80;;;;;;5059467;28;20056;-39
2023/05/27 12:35:18;;;;;;;8.13;4.70;;;28.40;44.20;;;;;;5062362;28;20041;-37
2023/05/27 12:37:44;;;;;;;11.70;5.20;;;28.60;43.70;;;;;;5064146;28;20398;-39
2023/05/27 12:40:14;;;;;;;10.80;5.70;;;28.50;43.40;;;;;;5062775;28;20311;-39
2023/05/27 12:42:40;;;;;;;10.10;4.90;;;28.40;42.90;;;;;;5073226;28;20044;-37
2023/05/27 12:45:08;;;;;;;9.23;5.00;;;28.30;43.20;;;;;;5061873;28;20044;-38
2023/05/27 12:47:39;;;;;;;10.93;4.88;;;28.20;42.90;;;;;;5064280;28;20033;-39
2023/05/27 12:50:06;;;;;;;10.98;4.95;;;28.10;43.50;;;;;;5059499;28;20097;-39
2023/05/27 12:52:32;;;;;;;10.73;4.70;;;28.00;42.80;;;;;;5071200;28;20053;-36